Time;durP1;ratioP1;P1;durP2;ratioP2;P2;SDS_P1;SDS_P2;PMS_P1;PMS_P2;Temp;Humidity;BMP_temperature;BMP_pressure;BME280_temperature;BME280_humidity;BME280_pressure;Samples;Min_cycle;Max_cycle;Signal;HPM_P1;HPM_P2
2023/07/27 00:00:54;;;;;;;1.50;1.40;;;;;;;15.29;95.14;100926.06;6324701;27;20238;-70
2023/07/27 00:04:16;;;;;;;3.07;1.50;;;;;;;14.95;95.34;100931.53;6322911;27;20231;-69
2023/07/27 00:07:38;;;;;;;4.70;1.73;;;;;;;15.00;95.20;100932.75;6317136;27;20604;-69
2023/07/27 00:10:58;;;;;;;1.53;1.43;;;;;;;15.10;95.20;100921.75;6319324;27;20226;-69
2023/07/27 00:14:19;;;;;;;1.93;1.53;;;;;;;14.99;95.45;100932.91;6317251;27;20226;-68
2023/07/27 00:17:41;;;;;;;1.47;1.37;;;;;;;14.66;96.44;100939.19;6319325;27;20298;-68
2023/07/27 00:21:02;;;;;;;2.20;1.77;;;;;;;14.61;96.63;100925.25;6322613;27;20234;-69
2023/07/27 00:24:26;;;;;;;2.07;1.50;;;;;;;14.82;96.92;100918.41;6314864;27;20253;-70
2023/07/27 00:27:47;;;;;;;2.17;1.87;;;;;;;14.66;97.21;100926.47;6314976;27;20226;-70
2023/07/27 00:31:08;;;;;;;2.23;1.43;;;;;;;14.71;97.03;100918.69;6314126;27;20230;-70
2023/07/27 00:34:30;;;;;;;3.77;1.83;;;;;;;14.68;97.21;100920.88;6310272;27;20257;-68
2023/07/27 00:37:51;;;;;;;3.53;1.60;;;;;;;14.64;97.50;100922.22;6315922;27;20226;-70
2023/07/27 00:41:13;;;;;;;2.47;1.97;;;;;;;14.57;97.58;100911.16;6312292;27;20237;-70
2023/07/27 00:44:34;;;;;;;1.60;1.50;;;;;;;14.59;98.33;100910.97;6322428;27;20225;-69
2023/07/27 00:47:55;;;;;;;1.60;1.50;;;;;;;14.61;98.35;100908.97;6325965;27;20219;-70
2023/07/27 00:51:16;;;;;;;1.53;1.27;;;;;;;14.74;98.53;100902.09;6291669;27;20226;-68
2023/07/27 00:54:37;;;;;;;2.40;1.77;;;;;;;14.71;98.16;100907.84;6310433;27;20222;-69
2023/07/27 00:58:00;;;;;;;1.93;1.83;;;;;;;14.57;98.77;100908.44;6315190;27;20222;-69
2023/07/27 01:01:22;;;;;;;3.10;1.67;;;;;;;14.74;99.10;100896.66;6307863;27;20558;-70
2023/07/27 01:04:44;;;;;;;2.53;2.03;;;;;;;14.76;99.13;100904.63;6317490;27;20226;-70
2023/07/27 01:08:05;;;;;;;3.07;2.70;;;;;;;14.74;99.05;100898.53;6323346;27;20294;-69
2023/07/27 01:11:36;;;;;;;2.07;1.70;;;;;;;14.80;99.15;100889.72;6311985;27;20238;-69
2023/07/27 01:15:07;;;;;;;6.03;2.20;;;;;;;14.99;99.22;100875.91;6312430;27;20225;-69
2023/07/27 01:18:34;;;;;;;2.60;2.40;;;;;;;14.95;98.93;100879.97;6315548;27;20583;-69
2023/07/27 01:22:11;;;;;;;2.30;2.20;;;;;;;14.92;99.13;100872.13;6321192;27;20229;-69
2023/07/27 01:25:57;;;;;;;2.83;2.63;;;;;;;14.93;99.14;100871.97;6315572;27;20218;-69
2023/07/27 01:29:39;;;;;;;3.93;3.10;;;;;;;14.95;98.67;100872.66;6319137;27;20234;-70
2023/07/27 01:33:09;;;;;;;2.67;2.00;;;;;;;14.75;99.09;100871.22;6319916;27;20281;-69
2023/07/27 01:36:37;;;;;;;2.73;2.20;;;;;;;14.82;99.83;100868.69;6314362;27;21125;-70
2023/07/27 01:40:01;;;;;;;4.87;2.70;;;;;;;14.84;99.72;100866.66;6321489;27;20639;-69
2023/07/27 01:43:24;;;;;;;10.10;4.30;;;;;;;14.78;100.00;100854.63;6321859;27;20226;-69
2023/07/27 01:46:47;;;;;;;2.63;2.07;;;;;;;14.87;100.00;100864.47;6321343;27;20219;-70
2023/07/27 01:50:11;;;;;;;3.47;3.17;;;;;;;14.81;100.00;100850.72;6319445;27;20253;-70
2023/07/27 01:53:34;;;;;;;2.70;2.50;;;;;;;14.77;100.00;100842.03;6312380;28;20544;-69
2023/07/27 01:56:56;;;;;;;2.83;2.53;;;;;;;14.90;100.00;100844.28;6307545;27;20241;-70
2023/07/27 02:00:18;;;;;;;2.90;2.63;;;;;;;14.79;100.00;100834.59;6318882;27;20237;-69
2023/07/27 02:03:39;;;;;;;3.27;3.07;;;;;;;14.89;100.00;100838.03;6302937;27;20221;-69
2023/07/27 02:07:01;;;;;;;4.33;2.90;;;;;;;14.82;100.00;100836.13;6341078;27;20234;-70
2023/07/27 02:10:24;;;;;;;3.80;3.50;;;;;;;14.79;99.93;100831.88;6308074;27;20591;-70
2023/07/27 02:13:52;;;;;;;5.73;3.47;;;;;;;14.81;99.76;100832.56;6326037;27;20223;-70
2023/07/27 02:17:20;;;;;;;3.40;3.10;;;;;;;14.72;100.00;100836.28;6315448;27;20230;-70
2023/07/27 02:20:42;;;;;;;3.63;3.13;;;;;;;14.66;100.00;100833.38;6311154;27;20233;-69
2023/07/27 02:24:06;;;;;;;4.17;3.77;;;;;;;14.81;100.00;100829.00;6319969;27;20229;-69
2023/07/27 02:27:26;;;;;;;7.27;3.00;;;;;;;14.88;99.89;100830.91;6320792;27;20226;-70
2023/07/27 02:30:48;;;;;;;4.93;3.57;;;;;;;14.88;99.68;100827.31;6315207;27;20586;-69
2023/07/27 02:34:08;;;;;;;7.73;4.87;;;;;;;14.71;99.71;100821.00;6319688;28;20237;-70
2023/07/27 02:37:29;;;;;;;3.73;3.43;;;;;;;14.84;99.40;100821.38;6320148;27;20606;-70
2023/07/27 02:40:52;;;;;;;3.53;3.23;;;;;;;14.91;99.31;100814.28;6315914;27;20233;-70
2023/07/27 02:44:13;;;;;;;4.13;3.73;;;;;;;14.63;99.67;100820.97;6314126;28;20222;-70
2023/07/27 02:47:35;;;;;;;4.73;3.77;;;;;;;14.66;99.98;100817.09;6323379;28;20230;-70
2023/07/27 02:50:59;;;;;;;3.90;3.50;;;;;;;14.57;100.00;100813.47;6317722;27;20238;-69
2023/07/27 02:54:20;;;;;;;4.07;3.53;;;;;;;14.51;100.00;100819.56;6323003;28;20242;-69
2023/07/27 02:57:42;;;;;;;3.57;3.20;;;;;;;14.47;100.00;100820.03;6320854;27;20595;-68
2023/07/27 03:01:04;;;;;;;4.67;3.47;;;;;;;14.54;100.00;100821.09;6344069;27;20263;-69
2023/07/27 03:04:25;;;;;;;6.70;3.73;;;;;;;14.62;99.66;100811.13;6321986;27;20506;-70
2023/07/27 03:07:46;;;;;;;4.27;3.20;;;;;;;14.64;99.29;100819.13;6319710;28;20596;-70
2023/07/27 03:11:07;;;;;;;4.63;4.10;;;;;;;14.61;99.30;100817.56;6316759;28;20611;-69
2023/07/27 03:14:29;;;;;;;4.17;3.33;;;;;;;14.73;99.21;100818.09;6309560;28;20226;-69
2023/07/27 03:17:50;;;;;;;5.63;3.13;;;;;;;14.73;99.07;100810.81;6313931;28;20328;-69
2023/07/27 03:21:11;;;;;;;6.67;3.40;;;;;;;14.71;98.79;100807.44;6306221;27;20226;-69
2023/07/27 03:24:32;;;;;;;3.33;3.00;;;;;;;14.72;98.78;100808.28;6313428;27;20249;-69
2023/07/27 03:27:54;;;;;;;5.57;3.40;;;;;;;14.72;98.50;100805.56;6323384;27;20327;-69
2023/07/27 03:31:18;;;;;;;6.40;4.00;;;;;;;14.71;98.35;100807.44;6308290;28;20254;-69
2023/07/27 03:34:39;;;;;;;4.63;3.60;;;;;;;14.54;98.75;100812.97;6320278;28;20329;-69
2023/07/27 03:38:00;;;;;;;4.80;4.23;;;;;;;14.72;98.67;100814.56;6319231;27;20230;-69
2023/07/27 03:41:21;;;;;;;3.93;3.63;;;;;;;14.34;98.91;100817.78;6315972;27;20234;-69
2023/07/27 03:44:43;;;;;;;9.47;3.97;;;;;;;14.43;99.49;100813.25;6340906;27;20328;-69
2023/07/27 03:48:06;;;;;;;6.00;4.33;;;;;;;14.40;99.80;100806.28;6324771;28;20623;-69
2023/07/27 03:51:27;;;;;;;3.53;3.23;;;;;;;14.29;100.00;100806.56;6316777;28;20230;-69
2023/07/27 03:54:48;;;;;;;5.67;3.87;;;;;;;14.43;100.00;100796.97;6323752;28;20238;-68
2023/07/27 03:58:14;;;;;;;6.87;4.47;;;;;;;14.20;100.00;100793.94;6317257;28;20249;-71
2023/07/27 04:01:36;;;;;;;4.43;3.93;;;;;;;14.18;100.00;100787.84;6287314;28;20226;-69
2023/07/27 04:05:00;;;;;;;4.77;4.10;;;;;;;14.19;100.00;100782.25;6324256;28;20321;-69
2023/07/27 04:08:20;;;;;;;7.47;3.87;;;;;;;14.29;100.00;100788.44;6315734;28;20229;-69
2023/07/27 04:11:41;;;;;;;3.43;3.13;;;;;;;14.29;100.00;100776.72;6321246;28;20511;-69
2023/07/27 04:15:03;;;;;;;4.00;3.33;;;;;;;14.36;100.00;100777.78;6321517;27;20246;-68
2023/07/27 04:18:24;;;;;;;4.30;3.87;;;;;;;14.35;100.00;100774.22;6318005;27;20247;-68
2023/07/27 04:21:46;;;;;;;5.87;4.80;;;;;;;14.32;100.00;100773.69;6310278;27;20227;-69
2023/07/27 04:25:08;;;;;;;4.73;3.40;;;;;;;14.41;100.00;100770.84;6315812;27;20231;-69
2023/07/27 04:28:29;;;;;;;5.43;4.00;;;;;;;14.38;100.00;100771.19;6317466;27;20245;-69
2023/07/27 04:31:50;;;;;;;8.43;4.23;;;;;;;14.33;100.00;100767.28;6308048;27;20230;-69
2023/07/27 04:35:11;;;;;;;6.70;4.47;;;;;;;14.43;100.00;100763.41;6341390;27;20229;-68
2023/07/27 04:38:33;;;;;;;5.97;4.77;;;;;;;14.50;100.00;100760.88;6313310;27;20323;-68
2023/07/27 04:41:54;;;;;;;5.27;4.80;;;;;;;14.72;100.00;100764.88;6289380;27;20921;-70
2023/07/27 04:45:15;;;;;;;5.20;4.10;;;;;;;14.76;99.77;100760.81;6314247;27;20521;-68
2023/07/27 04:48:36;;;;;;;4.67;3.83;;;;;;;14.74;99.30;100755.53;6319572;27;20263;-70
2023/07/27 04:51:59;;;;;;;4.43;4.03;;;;;;;14.82;99.37;100750.13;6310660;27;20227;-68
2023/07/27 04:55:21;;;;;;;4.40;4.00;;;;;;;14.63;99.59;100753.13;6315162;27;20567;-69
2023/07/27 04:58:42;;;;;;;5.90;4.70;;;;;;;14.51;100.00;100750.88;6312651;27;20221;-69
2023/07/27 05:02:03;;;;;;;5.40;4.40;;;;;;;14.69;100.00;100751.63;6310985;27;20474;-69
2023/07/27 05:05:24;;;;;;;5.43;4.63;;;;;;;14.77;99.95;100738.91;6315392;27;20901;-68
2023/07/27 05:08:45;;;;;;;5.80;5.23;;;;;;;14.73;99.77;100734.84;6318881;27;20226;-68
2023/07/27 05:12:07;;;;;;;5.57;5.07;;;;;;;14.61;99.76;100749.75;6288500;27;20257;-68
2023/07/27 05:15:28;;;;;;;5.20;4.80;;;;;;;14.80;99.54;100740.44;6318236;27;20221;-69
2023/07/27 05:18:49;;;;;;;5.20;4.70;;;;;;;14.52;99.81;100739.88;6335675;27;20238;-69
2023/07/27 05:22:10;;;;;;;4.23;3.70;;;;;;;14.57;100.00;100742.94;6319210;27;20222;-69
2023/07/27 05:25:31;;;;;;;6.03;5.30;;;;;;;14.92;100.00;100745.41;6310576;27;20493;-69
2023/07/27 05:28:53;;;;;;;7.00;5.77;;;;;;;14.96;99.28;100746.75;6328598;27;20226;-69
2023/07/27 05:32:14;;;;;;;5.40;4.87;;;;;;;14.83;99.30;100740.97;6324682;27;20610;-69
2023/07/27 05:35:35;;;;;;;5.67;4.93;;;;;;;14.78;98.99;100737.91;6321218;27;20320;-69
2023/07/27 05:38:56;;;;;;;8.77;5.33;;;;;;;15.01;99.10;100736.25;6349786;27;20224;-69
2023/07/27 05:42:16;;;;;;;7.83;5.60;;;;;;;15.07;98.79;100732.00;6338174;27;20886;-69
2023/07/27 05:45:38;;;;;;;7.53;4.90;;;;;;;15.18;98.33;100735.25;6318177;28;20234;-69
2023/07/27 05:48:59;;;;;;;11.33;5.90;;;;;;;15.37;97.81;100717.75;6322975;27;20230;-68
2023/07/27 05:52:20;;;;;;;6.80;4.83;;;;;;;15.54;97.03;100716.75;6327017;27;20339;-68
2023/07/27 05:55:41;;;;;;;6.07;4.67;;;;;;;15.58;96.92;100707.22;6310473;27;20308;-68
2023/07/27 05:59:02;;;;;;;6.17;4.83;;;;;;;15.96;96.27;100705.59;6327703;27;20533;-67
2023/07/27 06:02:24;;;;;;;4.73;4.33;;;;;;;15.76;95.09;100707.88;6326224;27;20238;-68
2023/07/27 06:05:45;;;;;;;8.27;5.13;;;;;;;15.91;95.07;100710.72;6324162;28;20595;-67
2023/07/27 06:09:09;;;;;;;5.63;5.03;;;;;;;16.02;93.84;100703.03;6320184;28;20340;-67
2023/07/27 06:12:30;;;;;;;6.57;4.77;;;;;;;16.21;93.36;100704.47;6322771;27;20231;-68
2023/07/27 06:15:51;;;;;;;6.17;4.50;;;;;;;16.46;92.15;100703.34;6311571;27;20596;-69
2023/07/27 06:19:13;;;;;;;6.07;4.67;;;;;;;15.96;92.26;100701.00;6319286;27;20230;-67
2023/07/27 06:22:34;;;;;;;5.80;5.30;;;;;;;16.29;91.86;100703.63;6335982;27;20675;-68
2023/07/27 06:25:54;;;;;;;5.37;4.87;;;;;;;15.99;91.53;100705.25;6306760;28;20222;-69
2023/07/27 06:29:16;;;;;;;5.00;4.50;;;;;;;15.79;92.30;100695.81;6319807;27;20228;-68
2023/07/27 06:32:37;;;;;;;5.47;4.97;;;;;;;15.58;93.42;100701.78;6320279;27;20230;-68
2023/07/27 06:35:59;;;;;;;6.73;5.20;;;;;;;15.63;93.56;100709.41;6322830;27;20225;-67
2023/07/27 06:39:20;;;;;;;5.93;4.90;;;;;;;15.56;93.30;100706.53;6315393;27;20264;-67
2023/07/27 06:42:41;;;;;;;6.27;5.13;;;;;;;16.16;93.22;100696.03;6318064;27;20229;-67
2023/07/27 06:46:02;;;;;;;5.57;5.00;;;;;;;15.88;92.42;100697.47;6313771;27;20229;-67
2023/07/27 06:49:24;;;;;;;5.73;5.13;;;;;;;15.99;93.11;100699.81;6333883;27;20225;-68
2023/07/27 06:52:46;;;;;;;9.50;8.13;;;;;;;16.22;92.81;100699.91;6330985;27;20245;-67
2023/07/27 06:56:07;;;;;;;5.77;5.00;;;;;;;16.29;92.50;100695.47;6317303;27;20240;-69
2023/07/27 06:59:28;;;;;;;6.17;5.30;;;;;;;16.06;92.39;100699.97;6326692;27;20276;-68
2023/07/27 07:02:49;;;;;;;5.20;3.80;;;;;;;16.00;92.77;100690.63;6318945;27;20234;-68
2023/07/27 07:06:10;;;;;;;4.70;4.30;;;;;;;15.89;92.91;100701.91;6315814;27;20233;-69
2023/07/27 07:09:35;;;;;;;5.23;4.83;;;;;;;16.11;93.18;100689.41;6328268;27;20234;-69
2023/07/27 07:12:56;;;;;;;7.37;4.63;;;;;;;16.30;92.80;100684.38;6338902;27;20230;-68
2023/07/27 07:16:18;;;;;;;5.40;4.73;;;;;;;16.36;92.33;100689.13;6323761;27;20220;-69
2023/07/27 07:19:39;;;;;;;5.17;4.67;;;;;;;15.93;92.60;100690.50;6334660;27;20553;-68
2023/07/27 07:22:59;;;;;;;5.17;4.67;;;;;;;15.92;92.79;100693.38;6335271;27;20238;-68
2023/07/27 07:26:21;;;;;;;5.23;4.63;;;;;;;15.81;93.71;100699.22;6332548;27;20307;-67
2023/07/27 07:29:42;;;;;;;5.83;4.43;;;;;;;16.02;94.25;100691.28;6333775;27;20222;-69
2023/07/27 07:33:02;;;;;;;15.07;4.63;;;;;;;16.04;93.81;100692.00;6324056;27;20309;-67
2023/07/27 07:36:25;;;;;;;5.77;4.23;;;;;;;15.86;93.94;100692.22;6311394;27;20225;-68
2023/07/27 07:39:46;;;;;;;6.63;5.03;;;;;;;16.00;93.88;100677.88;6326106;27;20218;-67
2023/07/27 07:43:08;;;;;;;6.60;5.23;;;;;;;16.08;93.65;100678.88;6341249;27;20238;-66
2023/07/27 07:46:29;;;;;;;4.40;4.00;;;;;;;16.06;92.62;100679.06;6330630;27;20248;-68
2023/07/27 07:49:50;;;;;;;4.53;4.13;;;;;;;16.03;92.82;100676.69;6331735;27;20231;-67
2023/07/27 07:53:11;;;;;;;4.27;3.77;;;;;;;16.04;92.35;100655.78;6335748;27;20226;-68
2023/07/27 07:56:31;;;;;;;5.90;4.87;;;;;;;16.37;92.31;100657.31;6320759;27;20225;-68
2023/07/27 07:59:54;;;;;;;4.57;4.17;;;;;;;16.69;90.89;100652.53;6324961;27;20258;-68
2023/07/27 08:03:15;;;;;;;7.37;4.73;;;;;;;16.76;90.58;100658.97;6335255;27;20565;-67
2023/07/27 08:06:36;;;;;;;4.97;4.47;;;;;;;16.77;90.89;100654.38;6334098;27;20712;-68
2023/07/27 08:09:58;;;;;;;7.60;5.33;;;;;;;16.84;90.73;100651.75;6335402;27;20298;-67
2023/07/27 08:13:19;;;;;;;7.70;4.97;;;;;;;16.63;91.51;100652.41;6333258;27;20230;-67
2023/07/27 08:16:41;;;;;;;4.33;3.93;;;;;;;16.54;92.27;100657.06;6336214;27;20519;-67
2023/07/27 08:20:03;;;;;;;5.20;4.27;;;;;;;16.64;92.82;100660.41;6328981;27;20257;-67
2023/07/27 08:23:24;;;;;;;6.30;5.50;;;;;;;17.06;92.47;100651.75;6338872;27;20234;-68
2023/07/27 08:26:45;;;;;;;4.43;4.03;;;;;;;17.14;91.67;100646.22;6333421;27;20228;-68
2023/07/27 08:30:07;;;;;;;6.73;4.77;;;;;;;17.44;91.48;100642.50;6323912;27;20226;-67
2023/07/27 08:33:29;;;;;;;6.70;4.57;;;;;;;17.06;91.03;100640.88;6306170;27;20218;-67
2023/07/27 08:36:52;;;;;;;10.40;4.93;;;;;;;16.96;91.19;100639.41;6314628;27;20836;-67
2023/07/27 08:40:13;;;;;;;5.03;4.53;;;;;;;16.97;90.99;100636.50;6320705;27;20249;-68
2023/07/27 08:43:34;;;;;;;5.38;4.88;;;;;;;16.72;92.12;100640.44;6317240;28;20590;-68
2023/07/27 08:46:57;;;;;;;5.37;4.97;;;;;;;16.95;92.27;100622.22;6331953;27;20237;-67
2023/07/27 08:50:20;;;;;;;6.68;5.07;;;;;;;17.04;91.99;100603.94;6323736;27;20283;-67
2023/07/27 08:53:41;;;;;;;6.30;5.27;;;;;;;17.18;91.73;100612.13;6317339;28;20234;-67
2023/07/27 08:57:03;;;;;;;5.80;4.57;;;;;;;17.33;91.94;100614.88;6328870;27;20312;-67
2023/07/27 09:00:24;;;;;;;5.40;4.82;;;;;;;17.13;91.69;100616.44;6320273;27;20226;-68
2023/07/27 09:03:46;;;;;;;5.03;4.00;;;;;;;16.90;92.29;100615.66;6330009;27;20230;-68
2023/07/27 09:07:08;;;;;;;5.20;4.70;;;;;;;17.01;92.55;100616.03;6336339;27;20220;-67
2023/07/27 09:10:29;;;;;;;6.70;4.27;;;;;;;17.02;92.36;100614.16;6313745;28;20226;-67
2023/07/27 09:13:50;;;;;;;4.93;4.37;;;;;;;17.27;92.07;100616.44;6322726;27;20311;-67
2023/07/27 09:17:14;;;;;;;6.00;4.37;;;;;;;16.83;91.99;100620.97;6338793;27;20638;-67
2023/07/27 09:20:35;;;;;;;5.20;4.70;;;;;;;16.88;92.52;100618.53;6325474;27;20234;-67
2023/07/27 09:23:59;;;;;;;5.37;4.47;;;;;;;16.93;92.46;100621.56;6336236;27;20229;-66
2023/07/27 09:27:20;;;;;;;5.43;4.73;;;;;;;17.10;92.41;100625.84;6338175;27;20236;-68
2023/07/27 09:30:44;;;;;;;4.13;3.83;;;;;;;16.99;92.40;100614.53;6308800;27;20253;-67
2023/07/27 09:34:05;;;;;;;5.45;4.40;;;;;;;17.24;91.83;100605.09;6328575;27;20233;-68
2023/07/27 09:37:26;;;;;;;4.72;4.00;;;;;;;17.59;91.24;100607.13;6335366;27;20221;-69
2023/07/27 09:40:49;;;;;;;5.50;5.03;;;;;;;17.55;91.04;100605.81;6310875;27;20234;-70
2023/07/27 09:44:13;;;;;;;6.13;4.83;;;;;;;17.85;89.96;100603.91;6337785;27;20237;-69
2023/07/27 09:47:35;;;;;;;3.83;3.53;;;;;;;18.06;88.29;100601.25;6338485;27;20240;-68
2023/07/27 09:50:58;;;;;;;4.80;4.32;;;;;;;17.88;88.42;100598.91;6302769;27;20228;-69
2023/07/27 09:54:21;;;;;;;4.70;4.30;;;;;;;17.95;89.08;100599.00;6344203;27;20218;-70
2023/07/27 09:57:45;;;;;;;6.10;4.68;;;;;;;17.24;89.84;100597.78;6336135;27;20217;-69
2023/07/27 10:01:06;;;;;;;5.57;4.97;;;;;;;17.40;91.31;100574.94;6315994;28;20316;-69
2023/07/27 10:04:26;;;;;;;4.82;4.40;;;;;;;18.06;90.08;100576.69;6309342;28;20535;-70
2023/07/27 10:07:48;;;;;;;5.68;4.28;;;;;;;18.00;88.79;100578.28;6339628;27;20328;-69
2023/07/27 10:11:09;;;;;;;5.90;3.85;;;;;;;17.62;89.50;100587.66;6315330;27;20221;-70
2023/07/27 10:14:33;;;;;;;4.82;4.43;;;;;;;17.79;90.16;100580.13;6335340;27;20279;-68
2023/07/27 10:17:57;;;;;;;4.88;4.22;;;;;;;18.12;89.07;100579.50;6347573;27;20232;-68
2023/07/27 10:21:23;;;;;;;5.05;4.15;;;;;;;18.51;88.14;100578.28;6322962;27;20233;-68
2023/07/27 10:24:48;;;;;;;5.00;4.50;;;;;;;18.23;88.27;100573.53;6348482;27;20602;-70
2023/07/27 10:28:09;;;;;;;4.05;3.65;;;;;;;18.58;87.73;100574.59;6319898;27;20254;-69
2023/07/27 10:31:34;;;;;;;4.35;3.97;;;;;;;18.47;86.73;100561.44;6313051;27;20240;-67
2023/07/27 10:34:54;;;;;;;6.20;5.32;;;;;;;19.05;86.48;100555.66;6329623;27;20667;-69
2023/07/27 10:38:15;;;;;;;5.20;4.68;;;;;;;18.84;85.77;100550.22;6332664;27;20230;-69
2023/07/27 10:41:36;;;;;;;4.80;4.30;;;;;;;19.08;85.08;100549.81;6317956;27;20224;-67
2023/07/27 10:44:58;;;;;;;4.00;3.53;;;;;;;19.05;84.36;100543.88;6333355;27;20711;-69
2023/07/27 10:48:20;;;;;;;4.35;3.97;;;;;;;18.71;86.39;100532.91;6345009;27;20225;-71
2023/07/27 10:51:42;;;;;;;5.78;3.95;;;;;;;18.46;87.46;100539.81;6331099;27;20220;-69
2023/07/27 10:55:04;;;;;;;4.57;4.20;;;;;;;18.64;87.83;100540.19;6326207;27;20230;-70
2023/07/27 10:58:26;;;;;;;4.32;3.95;;;;;;;18.72;87.48;100540.03;6330358;27;20226;-69
2023/07/27 11:01:49;;;;;;;6.65;5.90;;;;;;;19.14;87.08;100532.59;6314230;27;20233;-68
2023/07/27 11:05:13;;;;;;;5.25;4.32;;;;;;;18.96;86.96;100529.50;6315280;27;20274;-68
2023/07/27 11:08:37;;;;;;;5.22;4.80;;;;;;;18.85;87.33;100521.88;6331308;27;20225;-69
2023/07/27 11:12:00;;;;;;;6.75;4.93;;;;;;;18.51;88.05;100529.13;6305305;27;20232;-69
2023/07/27 11:15:23;;;;;;;6.20;3.70;;;;;;;18.96;88.16;100518.59;6296034;28;20229;-67
2023/07/27 11:18:44;;;;;;;11.75;4.20;;;;;;;19.17;87.38;100519.59;6292727;28;20587;-68
2023/07/27 11:22:07;;;;;;;6.57;4.35;;;;;;;19.14;87.90;100509.91;6301661;27;20233;-68
2023/07/27 11:25:31;;;;;;;5.07;4.07;;;;;;;19.08;87.42;100497.88;6304531;27;20234;-68
2023/07/27 11:28:54;;;;;;;4.13;3.78;;;;;;;18.88;87.66;100485.09;6304368;28;20234;-69
2023/07/27 11:32:15;;;;;;;4.80;3.95;;;;;;;18.88;87.95;100480.50;6321061;27;20248;-68
2023/07/27 11:35:45;;;;;;;4.45;4.05;;;;;;;19.48;86.71;100476.25;6303779;27;20229;-69
2023/07/27 11:39:08;;;;;;;5.30;3.97;;;;;;;19.30;86.32;100468.56;6314181;27;20234;-68
2023/07/27 11:42:30;;;;;;;5.05;4.03;;;;;;;19.50;86.03;100471.44;6321108;27;20238;-69
2023/07/27 11:45:55;;;;;;;4.15;3.42;;;;;;;19.65;85.06;100469.41;6306111;27;20249;-68
2023/07/27 11:49:17;;;;;;;4.63;4.22;;;;;;;20.07;83.29;100463.59;6349907;27;20253;-67
2023/07/27 11:52:38;;;;;;;4.45;4.05;;;;;;;19.44;83.49;100458.56;6342295;27;20244;-69
2023/07/27 11:56:00;;;;;;;4.32;3.92;;;;;;;19.87;83.46;100460.84;6322750;27;20230;-70
2023/07/27 11:59:21;;;;;;;4.60;4.05;;;;;;;20.32;81.78;100456.50;6341046;27;20230;-69
2023/07/27 12:02:46;;;;;;;8.38;4.72;;;;;;;20.41;81.46;100444.31;6344482;27;20228;-69
2023/07/27 12:06:07;;;;;;;5.55;3.65;;;;;;;20.86;80.31;100445.31;6312039;27;20627;-69
2023/07/27 12:09:28;;;;;;;4.28;3.88;;;;;;;20.26;79.77;100448.28;6332487;27;20222;-69
2023/07/27 12:12:54;;;;;;;4.28;3.88;;;;;;;20.22;80.44;100449.75;6342262;27;20651;-68
2023/07/27 12:16:17;;;;;;;5.15;4.13;;;;;;;20.35;79.91;100450.63;6313699;27;20930;-68
2023/07/27 12:19:38;;;;;;;4.22;3.65;;;;;;;20.56;79.65;100438.63;6334669;27;20235;-69
2023/07/27 12:22:59;;;;;;;5.85;5.45;;;;;;;20.03;79.81;100437.69;6339954;27;20226;-68
2023/07/27 12:26:20;;;;;;;3.83;3.50;;;;;;;19.67;80.91;100442.69;6321837;27;20240;-66
2023/07/27 12:29:42;;;;;;;4.75;3.45;;;;;;;19.50;81.45;100441.34;6334496;27;20230;-68
2023/07/27 12:33:03;;;;;;;6.10;4.65;;;;;;;19.09;81.99;100431.25;6339170;27;20223;-69
2023/07/27 12:36:24;;;;;;;5.00;3.42;;;;;;;19.01;83.13;100438.75;6313426;27;20620;-68
2023/07/27 12:39:45;;;;;;;4.82;4.05;;;;;;;19.03;83.68;100429.31;6340219;27;20225;-68
2023/07/27 12:43:06;;;;;;;5.95;5.35;;;;;;;18.76;84.57;100422.00;6332684;27;20540;-68
2023/07/27 12:46:28;;;;;;;6.90;4.68;;;;;;;18.87;85.29;100421.44;6322909;27;20257;-69
2023/07/27 12:49:49;;;;;;;5.05;4.38;;;;;;;18.82;85.70;100409.41;6333805;27;20608;-69
2023/07/27 12:53:10;;;;;;;5.07;4.65;;;;;;;18.92;85.80;100402.56;6337304;27;20600;-69
2023/07/27 12:56:31;;;;;;;8.15;5.28;;;;;;;19.00;85.64;100407.03;6320520;27;20217;-70
2023/07/27 12:59:51;;;;;;;6.15;4.15;;;;;;;19.07;85.60;100405.16;6315389;27;20612;-68
2023/07/27 13:03:13;;;;;;;4.55;4.15;;;;;;;19.11;86.51;100393.63;6338703;27;20238;-68
2023/07/27 13:06:34;;;;;;;4.18;3.78;;;;;;;18.75;88.20;100403.09;6321910;27;20232;-69
2023/07/27 13:09:56;;;;;;;3.25;2.65;;;;;;;18.51;89.09;100400.81;6337722;27;20229;-69
2023/07/27 13:13:17;;;;;;;2.35;2.15;;;;;;;18.23;88.43;100387.16;6337027;27;20237;-68
2023/07/27 13:16:38;;;;;;;2.55;2.35;;;;;;;18.40;88.18;100385.78;6319610;27;20236;-68
2023/07/27 13:20:00;;;;;;;2.63;1.90;;;;;;;18.48;87.74;100385.69;6326747;27;20415;-68
2023/07/27 13:23:20;;;;;;;2.72;2.10;;;;;;;18.27;87.13;100382.97;6338312;27;20230;-68
2023/07/27 13:26:41;;;;;;;2.10;1.90;;;;;;;18.52;86.71;100383.41;6331397;27;21109;-68
2023/07/27 13:30:04;;;;;;;2.00;1.80;;;;;;;18.22;87.27;100377.25;6327810;27;20221;-67
2023/07/27 13:33:25;;;;;;;2.67;2.00;;;;;;;18.58;87.24;100380.72;6340911;27;20226;-67
2023/07/27 13:36:47;;;;;;;2.45;2.25;;;;;;;18.31;87.40;100363.25;6326495;27;20489;-68
2023/07/27 13:40:08;;;;;;;7.55;2.85;;;;;;;18.06;87.90;100362.03;6328343;27;20320;-68
2023/07/27 13:43:29;;;;;;;2.42;2.22;;;;;;;18.39;88.31;100359.53;6333617;27;20242;-68
2023/07/27 13:46:51;;;;;;;2.50;2.30;;;;;;;18.41;88.17;100357.47;6336204;27;20615;-68
2023/07/27 13:50:12;;;;;;;1.88;1.58;;;;;;;18.09;88.18;100364.34;6329662;27;20510;-70
2023/07/27 13:53:34;;;;;;;3.22;2.08;;;;;;;18.84;86.95;100361.75;6330821;27;20238;-70
2023/07/27 13:56:55;;;;;;;3.10;1.85;;;;;;;19.12;84.53;100372.59;6315036;27;20629;-67
2023/07/27 14:00:16;;;;;;;1.88;1.60;;;;;;;19.13;83.25;100364.19;6348645;27;20725;-69
2023/07/27 14:03:38;;;;;;;2.13;1.92;;;;;;;19.11;82.38;100360.81;6335046;27;20820;-69
2023/07/27 14:06:58;;;;;;;1.75;1.50;;;;;;;19.62;81.32;100360.38;6329777;27;20225;-68
2023/07/27 14:10:20;;;;;;;1.73;1.63;;;;;;;19.45;80.95;100359.94;6334720;27;20749;-68
2023/07/27 14:13:42;;;;;;;4.00;2.10;;;;;;;19.07;81.14;100353.22;6313801;28;20218;-68
2023/07/27 14:17:02;;;;;;;2.10;1.50;;;;;;;18.63;81.99;100367.28;6328755;27;20257;-68
2023/07/27 14:20:23;;;;;;;2.00;1.50;;;;;;;18.46;83.26;100365.91;6320131;27;20595;-68
2023/07/27 14:23:44;;;;;;;1.65;1.55;;;;;;;18.27;84.10;100364.69;6316253;28;20281;-69
2023/07/27 14:27:07;;;;;;;2.70;1.33;;;;;;;18.55;83.86;100347.50;6325075;27;20558;-67
2023/07/27 14:30:28;;;;;;;1.30;1.20;;;;;;;18.62;83.78;100359.31;6314714;27;20246;-69
2023/07/27 14:33:53;;;;;;;2.08;1.88;;;;;;;18.41;84.07;100353.88;6314686;28;20512;-67
2023/07/27 14:37:14;;;;;;;1.73;1.63;;;;;;;17.90;85.49;100358.72;6329127;27;20221;-69
2023/07/27 14:40:35;;;;;;;2.30;2.03;;;;;;;17.96;86.41;100355.22;6314000;27;20313;-68
2023/07/27 14:43:57;;;;;;;1.75;1.65;;;;;;;18.02;87.04;100343.50;6315049;28;20254;-67
2023/07/27 14:47:18;;;;;;;2.80;1.77;;;;;;;18.25;87.34;100352.31;6340983;27;20232;-68
2023/07/27 14:50:39;;;;;;;1.63;1.48;;;;;;;18.23;87.46;100351.66;6318447;28;20230;-69
2023/07/27 14:54:00;;;;;;;2.60;2.00;;;;;;;18.02;88.70;100340.78;6312134;27;20226;-68
2023/07/27 14:57:21;;;;;;;1.63;1.42;;;;;;;17.84;89.54;100351.31;6331169;27;20224;-68
2023/07/27 15:00:43;;;;;;;1.67;1.58;;;;;;;18.24;90.08;100348.72;6304896;28;20506;-68
2023/07/27 15:04:04;;;;;;;2.88;2.33;;;;;;;18.25;89.56;100346.84;6298887;28;20225;-67
2023/07/27 15:07:25;;;;;;;1.80;1.50;;;;;;;18.36;89.77;100336.22;6332042;27;20228;-69
2023/07/27 15:10:46;;;;;;;3.30;1.83;;;;;;;17.78;90.63;100343.91;6312842;28;20229;-68
2023/07/27 15:14:07;;;;;;;1.98;1.88;;;;;;;18.04;91.20;100336.84;6345181;27;20305;-68
2023/07/27 15:17:29;;;;;;;2.67;1.83;;;;;;;18.29;90.85;100335.31;6317037;27;20260;-68
2023/07/27 15:20:55;;;;;;;2.70;2.22;;;;;;;17.98;90.90;100334.03;6301853;28;20241;-69
2023/07/27 15:24:16;;;;;;;2.90;2.70;;;;;;;18.12;91.04;100324.91;6313677;27;20233;-69
2023/07/27 15:27:36;;;;;;;1.70;1.60;;;;;;;17.63;91.55;100332.25;6335913;27;20229;-68
2023/07/27 15:30:58;;;;;;;1.67;1.58;;;;;;;17.87;92.13;100327.22;6310489;27;20226;-69
2023/07/27 15:34:20;;;;;;;1.30;1.20;;;;;;;17.67;92.14;100319.91;6335319;27;20222;-68
2023/07/27 15:37:41;;;;;;;2.70;1.90;;;;;;;17.95;91.90;100313.44;6335595;27;20229;-69